createdAt,value
2023-04-26T00:02:07.715Z,67.74
2023-04-26T00:04:40.494Z,67.94
2023-04-26T00:07:10.794Z,67.77
2023-04-26T00:09:42.120Z,67.77
2023-04-26T00:12:12.408Z,67.88
2023-04-26T00:14:42.490Z,68.12
2023-04-26T00:17:12.788Z,68.10
2023-04-26T00:19:45.378Z,68.32
2023-04-26T00:22:15.610Z,68.45
2023-04-26T00:24:45.591Z,68.45
2023-04-26T00:27:15.952Z,68.77
2023-04-26T00:29:46.227Z,68.60
2023-04-26T00:32:16.166Z,68.98
2023-04-26T00:34:48.794Z,69.12
2023-04-26T00:37:18.628Z,69.02
2023-04-26T00:39:48.932Z,69.03
2023-04-26T00:42:19.683Z,69.22
2023-04-26T00:44:50.524Z,69.17
2023-04-26T00:47:20.646Z,69.07
2023-04-26T00:49:53.501Z,69.09
2023-04-26T00:52:23.772Z,69.08
2023-04-26T00:54:53.912Z,69.32
2023-04-26T00:57:24.617Z,69.15
2023-04-26T00:59:54.699Z,69.14
2023-04-26T01:02:24.783Z,69.43
2023-04-26T01:04:57.428Z,69.38
2023-04-26T01:07:27.568Z,69.28
2023-04-26T01:09:59.834Z,69.54
2023-04-26T01:12:30.712Z,69.52
2023-04-26T01:15:01.347Z,69.66
2023-04-26T01:17:31.337Z,69.85
2023-04-26T01:20:04.155Z,69.97
2023-04-26T01:22:38.637Z,70.33
2023-04-26T01:25:10.420Z,69.87
2023-04-26T01:27:40.470Z,69.90
2023-04-26T01:30:12.998Z,70.12
2023-04-26T01:32:43.057Z,70.09
2023-04-26T01:35:13.089Z,70.20
2023-04-26T01:37:45.826Z,70.45
2023-04-26T01:40:16.955Z,70.33
2023-04-26T01:42:46.792Z,70.45
2023-04-26T01:45:17.625Z,70.40
2023-04-26T01:47:48.098Z,70.36
2023-04-26T01:50:18.283Z,70.56
2023-04-26T01:52:50.766Z,70.72
2023-04-26T01:55:20.602Z,70.88
2023-04-26T01:57:50.464Z,71.09
2023-04-26T02:00:20.962Z,70.89
2023-04-26T02:02:51.127Z,70.96
2023-04-26T02:05:21.033Z,71.35
2023-04-26T02:07:53.847Z,71.75
2023-04-26T02:10:23.652Z,71.40
2023-04-26T02:12:53.657Z,71.22
2023-04-26T02:15:23.830Z,71.24
2023-04-26T02:17:54.217Z,71.29
2023-04-26T02:20:24.456Z,71.34
2023-04-26T02:22:57.157Z,71.50
2023-04-26T02:25:27.397Z,71.40
2023-04-26T02:27:57.303Z,71.47
2023-04-26T02:30:27.151Z,71.30
2023-04-26T02:32:57.718Z,71.51
2023-04-26T02:35:28.013Z,71.60
2023-04-26T02:38:00.640Z,71.86
2023-04-26T02:40:30.829Z,71.53
2023-04-26T02:43:00.773Z,71.44
2023-04-26T02:45:30.702Z,71.64
2023-04-26T02:48:00.853Z,71.69
2023-04-26T02:50:30.696Z,71.77
2023-04-26T02:53:03.777Z,72.16
2023-04-26T02:55:33.671Z,72.03
2023-04-26T02:58:03.708Z,72.24
2023-04-26T03:00:34.537Z,72.29
2023-04-26T03:03:04.893Z,71.99
2023-04-26T03:05:34.937Z,72.14
2023-04-26T03:08:08.084Z,72.31
2023-04-26T03:10:37.868Z,72.15
2023-04-26T03:13:07.865Z,72.29
2023-04-26T03:15:37.790Z,72.35
2023-04-26T03:18:07.879Z,72.56
2023-04-26T03:20:38.024Z,72.43
2023-04-26T03:23:10.756Z,72.77
2023-04-26T03:25:40.700Z,72.54
2023-04-26T03:28:10.666Z,72.60
2023-04-26T03:30:40.561Z,72.61
2023-04-26T03:33:10.524Z,72.37
2023-04-26T03:35:40.411Z,72.58
2023-04-26T03:38:13.248Z,72.65
2023-04-26T03:40:43.148Z,72.70
2023-04-26T03:43:13.042Z,72.75
2023-04-26T03:45:43.056Z,72.77
2023-04-26T03:48:13.040Z,72.77
2023-04-26T03:50:45.279Z,72.71
2023-04-26T03:53:17.997Z,72.85
2023-04-26T03:55:48.171Z,72.93
2023-04-26T03:58:18.581Z,73.16
2023-04-26T04:00:48.477Z,72.98
2023-04-26T04:03:21.398Z,73.16
2023-04-26T04:05:51.659Z,72.97
2023-04-26T04:08:24.120Z,73.40
2023-04-26T04:10:54.088Z,73.32
2023-04-26T04:13:23.977Z,73.31
2023-04-26T04:15:54.623Z,73.24
2023-04-26T04:18:24.612Z,73.27
2023-04-26T04:20:54.596Z,73.30
2023-04-26T04:23:27.796Z,73.72
2023-04-26T04:25:58.133Z,73.52
2023-04-26T04:28:28.213Z,73.71
2023-04-26T04:30:58.441Z,73.62
2023-04-26T04:33:28.843Z,73.57
2023-04-26T04:35:58.853Z,73.71
2023-04-26T04:38:31.960Z,73.88
2023-04-26T04:41:01.937Z,74.07
2023-04-26T04:43:31.885Z,73.93
2023-04-26T04:46:01.854Z,74.02
2023-04-26T04:48:31.774Z,73.84
2023-04-26T04:51:02.570Z,73.85
2023-04-26T04:53:35.170Z,73.91
2023-04-26T04:56:08.986Z,73.95
2023-04-26T04:58:39.310Z,73.83
2023-04-26T05:01:09.247Z,74.00
2023-04-26T05:03:39.682Z,74.15
2023-04-26T05:06:10.085Z,73.98
2023-04-26T05:08:42.685Z,74.54
2023-04-26T05:11:12.515Z,74.48
2023-04-26T05:13:42.339Z,74.46
2023-04-26T05:16:12.218Z,74.53
2023-04-26T05:18:42.091Z,74.62
2023-04-26T05:21:12.272Z,74.58
2023-04-26T05:23:44.959Z,74.89
2023-04-26T05:26:18.283Z,75.08
2023-04-26T05:28:48.322Z,75.04
2023-04-26T05:31:18.386Z,75.33
2023-04-26T05:33:48.280Z,75.24
2023-04-26T05:36:18.397Z,75.58
2023-04-26T05:38:51.288Z,75.73
2023-04-26T05:41:21.368Z,75.74
2023-04-26T05:43:51.502Z,75.94
2023-04-26T05:46:21.894Z,75.68
2023-04-26T05:48:52.296Z,76.22
2023-04-26T05:51:22.574Z,76.67
2023-04-26T05:53:55.422Z,77.28
2023-04-26T05:56:25.991Z,77.47
2023-04-26T05:58:56.219Z,77.48
2023-04-26T06:01:26.109Z,77.63
2023-04-26T06:03:59.883Z,77.96
2023-04-26T06:06:32.345Z,77.99
2023-04-26T06:09:05.080Z,78.48
2023-04-26T06:11:35.031Z,79.15
2023-04-26T06:14:05.802Z,79.35
2023-04-26T06:16:36.507Z,79.65
2023-04-26T06:19:06.601Z,82.09
2023-04-26T06:21:36.521Z,84.29
2023-04-26T06:24:10.381Z,82.62
2023-04-26T06:26:40.231Z,82.59
2023-04-26T06:29:10.122Z,82.14
2023-04-26T06:31:40.268Z,82.79
2023-04-26T06:34:10.378Z,81.77
2023-04-26T06:36:40.290Z,82.05
2023-04-26T06:39:12.774Z,81.85
2023-04-26T06:41:43.656Z,80.59
2023-04-26T06:44:13.600Z,79.76
2023-04-26T06:46:43.617Z,79.34
2023-04-26T06:49:13.620Z,79.31
2023-04-26T06:51:43.745Z,78.58
2023-04-26T06:54:16.572Z,78.05
2023-04-26T06:56:46.426Z,78.00
2023-04-26T06:59:16.334Z,77.63
2023-04-26T07:01:46.303Z,76.69
2023-04-26T07:04:18.531Z,76.11
2023-04-26T07:06:48.741Z,76.51
2023-04-26T07:09:21.369Z,76.21
2023-04-26T07:11:51.355Z,76.29
2023-04-26T07:14:21.378Z,76.60
2023-04-26T07:16:51.498Z,73.50
2023-04-26T07:19:21.305Z,74.03
2023-04-26T07:21:51.260Z,73.57
2023-04-26T07:24:23.782Z,72.55
2023-04-26T07:26:53.654Z,70.79
2023-04-26T07:29:23.572Z,69.92
2023-04-26T07:31:53.479Z,69.27
2023-04-26T07:34:23.386Z,67.91
2023-04-26T07:36:53.399Z,69.17
2023-04-26T07:39:26.028Z,68.47
2023-04-26T07:41:56.247Z,66.78
2023-04-26T07:44:26.125Z,67.56
2023-04-26T07:46:56.163Z,67.50
2023-04-26T07:49:26.139Z,68.09
2023-04-26T07:51:56.696Z,67.76
2023-04-26T07:54:29.254Z,67.43
2023-04-26T07:56:59.176Z,67.67
2023-04-26T07:59:29.033Z,67.97
2023-04-26T08:01:59.056Z,67.63
2023-04-26T08:04:38.240Z,65.96
2023-04-26T08:07:08.420Z,66.24
2023-04-26T08:09:41.097Z,64.08
2023-04-26T08:12:11.521Z,65.11
2023-04-26T08:14:41.838Z,64.48
2023-04-26T08:17:12.733Z,64.17
2023-04-26T08:19:42.864Z,63.94
2023-04-26T08:22:12.930Z,63.83
2023-04-26T08:24:51.203Z,62.20
2023-04-26T08:27:22.092Z,62.71
2023-04-26T08:29:52.201Z,63.28
2023-04-26T08:32:22.367Z,62.59
2023-04-26T08:34:52.219Z,61.16
2023-04-26T08:37:22.164Z,61.89
2023-04-26T08:39:54.628Z,61.52
2023-04-26T08:42:29.411Z,61.39
2023-04-26T08:45:03.687Z,61.36
2023-04-26T08:47:41.617Z,61.92
2023-04-26T08:50:15.125Z,62.06
2023-04-26T08:52:46.235Z,62.42
2023-04-26T08:55:20.360Z,60.68
2023-04-26T08:57:51.646Z,61.08
2023-04-26T09:00:23.642Z,60.22
2023-04-26T09:02:55.307Z,56.19
2023-04-26T09:05:27.226Z,58.04
2023-04-26T09:08:00.905Z,58.57
2023-04-26T09:10:34.081Z,58.56
2023-04-26T09:13:04.043Z,59.49
2023-04-26T09:15:33.966Z,59.91
2023-04-26T09:18:22.341Z,58.47
2023-04-26T09:21:07.175Z,58.88
2023-04-26T09:23:37.355Z,59.46
2023-04-26T09:26:23.100Z,56.35
2023-04-26T09:28:53.483Z,59.02
2023-04-26T09:31:41.231Z,57.47
2023-04-26T09:34:12.579Z,58.93
2023-04-26T09:36:53.909Z,58.40
2023-04-26T09:39:34.616Z,57.40
2023-04-26T09:42:07.958Z,57.74
2023-04-26T09:44:38.340Z,57.95
2023-04-26T09:47:10.609Z,58.45
2023-04-26T09:49:50.616Z,56.94
2023-04-26T09:52:22.044Z,57.40
2023-04-26T09:54:54.603Z,57.19
2023-04-26T09:57:27.129Z,56.53
2023-04-26T09:59:58.014Z,56.82
2023-04-26T10:02:30.401Z,56.25
2023-04-26T10:05:02.398Z,56.36
2023-04-26T10:07:33.667Z,56.01
2023-04-26T10:10:05.140Z,55.74
2023-04-26T10:12:37.882Z,53.95
2023-04-26T10:15:11.210Z,55.45
2023-04-26T10:17:41.525Z,54.21
2023-04-26T10:20:15.262Z,55.09
2023-04-26T10:22:49.213Z,53.83
2023-04-26T10:25:19.114Z,54.14
2023-04-26T10:27:55.962Z,53.63
2023-04-26T10:30:26.286Z,54.43
2023-04-26T10:33:20.795Z,52.37
2023-04-26T10:36:11.391Z,51.72
2023-04-26T10:38:43.158Z,51.31
2023-04-26T10:41:32.563Z,52.32
2023-04-26T10:44:49.957Z,52.58
2023-04-26T10:47:29.026Z,53.14
2023-04-26T10:50:07.535Z,53.72
2023-04-26T10:52:38.122Z,53.89
2023-04-26T10:55:10.510Z,54.60
2023-04-26T10:57:51.706Z,53.71
2023-04-26T11:00:42.568Z,53.64
2023-04-26T11:03:15.732Z,54.15
2023-04-26T11:05:57.262Z,51.80
2023-04-26T11:08:32.199Z,53.13
2023-04-26T11:11:10.018Z,52.92
2023-04-26T11:13:41.824Z,53.65
2023-04-26T11:16:16.000Z,51.34
2023-04-26T11:18:47.853Z,52.19
2023-04-26T11:21:19.819Z,51.54
2023-04-26T11:23:56.531Z,48.80
2023-04-26T11:26:27.019Z,50.16
2023-04-26T11:28:56.935Z,49.95
2023-04-26T11:31:29.493Z,49.02
2023-04-26T11:34:06.906Z,47.06
2023-04-26T11:36:39.752Z,45.51
2023-04-26T11:39:13.057Z,47.58
2023-04-26T11:41:44.103Z,47.98
2023-04-26T11:44:14.924Z,46.42
2023-04-26T11:46:48.746Z,45.79
2023-04-26T11:49:20.295Z,46.32
2023-04-26T11:51:51.992Z,47.93
2023-04-26T11:54:32.685Z,45.48
2023-04-26T11:57:03.051Z,48.57
2023-04-26T11:59:34.215Z,48.86
2023-04-26T12:02:10.400Z,48.21
2023-04-26T12:04:41.623Z,49.22
2023-04-26T12:07:11.836Z,48.77
2023-04-26T12:09:44.458Z,48.87
2023-04-26T12:12:14.554Z,48.38
2023-04-26T12:14:45.900Z,48.17
2023-04-26T12:17:18.789Z,46.22
2023-04-26T12:19:53.353Z,46.30
2023-04-26T12:22:24.706Z,47.21
2023-04-26T12:25:08.271Z,47.15
2023-04-26T12:27:39.839Z,47.37
2023-04-26T12:30:11.523Z,48.08
2023-04-26T12:32:44.698Z,45.35
2023-04-26T12:35:14.650Z,46.17
2023-04-26T12:37:44.508Z,45.48
2023-04-26T12:40:16.516Z,44.88
2023-04-26T12:42:51.301Z,44.01
2023-04-26T12:45:22.420Z,45.27
2023-04-26T12:47:55.034Z,45.36
2023-04-26T12:50:25.028Z,46.20
2023-04-26T12:52:55.370Z,45.93
2023-04-26T12:55:25.383Z,45.05
2023-04-26T12:57:58.385Z,44.26
2023-04-26T13:00:28.255Z,44.20
2023-04-26T13:03:01.031Z,45.41
2023-04-26T13:05:32.497Z,45.24
2023-04-26T13:08:02.826Z,43.56
2023-04-26T13:10:33.181Z,45.42
2023-04-26T13:13:03.260Z,46.39
2023-04-26T13:15:33.236Z,44.98
2023-04-26T13:18:06.600Z,45.87
2023-04-26T13:20:37.214Z,46.10
2023-04-26T13:23:07.239Z,46.64
2023-04-26T13:25:37.075Z,46.51
2023-04-26T13:28:08.035Z,45.83
2023-04-26T13:30:38.189Z,43.19
2023-04-26T13:33:11.287Z,44.16
2023-04-26T13:35:41.378Z,44.82
2023-04-26T13:38:11.629Z,44.93
2023-04-26T13:40:41.626Z,45.71
2023-04-26T13:43:11.931Z,45.41
2023-04-26T13:45:41.805Z,45.23
2023-04-26T13:48:14.769Z,44.01
2023-04-26T13:50:44.874Z,45.85
2023-04-26T13:53:15.143Z,46.41
2023-04-26T13:55:45.093Z,46.06
2023-04-26T13:58:15.284Z,46.22
2023-04-26T14:00:45.627Z,44.53
2023-04-26T14:03:18.532Z,43.31
2023-04-26T14:05:56.834Z,44.95
2023-04-26T14:08:26.933Z,45.31
2023-04-26T14:10:56.954Z,44.99
2023-04-26T14:13:26.972Z,44.86
2023-04-26T14:15:58.784Z,42.66
2023-04-26T14:18:31.433Z,41.64
2023-04-26T14:21:01.537Z,43.04
2023-04-26T14:23:31.480Z,43.43
2023-04-26T14:26:01.508Z,43.32
2023-04-26T14:28:33.423Z,44.07
2023-04-26T14:31:03.531Z,44.15
2023-04-26T14:33:36.107Z,43.69
2023-04-26T14:36:06.379Z,44.40
2023-04-26T14:38:36.589Z,43.95
2023-04-26T14:41:07.062Z,44.76
2023-04-26T14:43:37.031Z,44.54
2023-04-26T14:46:08.821Z,44.99
2023-04-26T14:48:41.348Z,45.33
2023-04-26T14:51:11.378Z,45.16
2023-04-26T14:53:41.606Z,44.47
2023-04-26T14:56:11.525Z,44.67
2023-04-26T14:58:41.482Z,44.84
2023-04-26T15:01:11.491Z,43.49
2023-04-26T15:03:44.322Z,42.83
2023-04-26T15:06:14.314Z,43.23
2023-04-26T15:08:44.283Z,43.30
2023-04-26T15:11:14.531Z,44.42
2023-04-26T15:13:44.349Z,43.65
2023-04-26T15:16:14.491Z,43.09
2023-04-26T15:18:47.173Z,43.19
2023-04-26T15:21:20.254Z,43.99
2023-04-26T15:23:50.138Z,44.04
2023-04-26T15:26:20.359Z,43.45
2023-04-26T15:28:50.254Z,43.80
2023-04-26T15:31:20.100Z,43.97
2023-04-26T15:33:52.741Z,43.66
2023-04-26T15:36:22.880Z,43.69
2023-04-26T15:38:53.326Z,44.21
2023-04-26T15:41:23.582Z,44.72
2023-04-26T15:43:56.352Z,44.37
2023-04-26T15:46:26.451Z,43.86
2023-04-26T15:48:59.012Z,44.51
2023-04-26T15:51:28.977Z,44.54
2023-04-26T15:53:59.020Z,42.53
2023-04-26T15:56:29.480Z,42.40
2023-04-26T15:58:59.543Z,43.29
2023-04-26T16:01:33.415Z,43.63
2023-04-26T16:04:06.109Z,43.28
2023-04-26T16:06:36.251Z,44.26
2023-04-26T16:09:23.926Z,43.87
2023-04-26T16:11:55.620Z,43.61
2023-04-26T16:14:31.861Z,41.80
2023-04-26T16:17:01.965Z,43.34
2023-04-26T16:19:34.610Z,43.53
2023-04-26T16:22:04.533Z,43.34
2023-04-26T16:24:34.471Z,44.46
2023-04-26T16:27:14.965Z,44.55
2023-04-26T16:29:45.312Z,44.89
2023-04-26T16:32:15.233Z,45.11
2023-04-26T16:34:48.823Z,44.77
2023-04-26T16:37:18.766Z,44.49
2023-04-26T16:39:48.842Z,44.28
2023-04-26T16:42:18.961Z,44.48
2023-04-26T16:44:49.132Z,44.54
2023-04-26T16:47:19.038Z,43.91
2023-04-26T16:49:51.679Z,43.39
2023-04-26T16:52:21.630Z,44.00
2023-04-26T16:54:51.437Z,44.47
2023-04-26T16:57:21.295Z,44.47
2023-04-26T16:59:51.664Z,44.81
2023-04-26T17:02:21.728Z,45.17
2023-04-26T17:04:54.932Z,44.69
2023-04-26T17:07:25.138Z,43.98
2023-04-26T17:09:56.488Z,44.54
2023-04-26T17:12:26.414Z,44.74
2023-04-26T17:14:56.743Z,44.20
2023-04-26T17:17:27.721Z,43.79
2023-04-26T17:20:00.313Z,44.41
2023-04-26T17:22:30.470Z,44.40
2023-04-26T17:25:00.451Z,44.30
2023-04-26T17:27:30.515Z,44.16
2023-04-26T17:30:00.590Z,43.96
2023-04-26T17:32:30.597Z,44.37
2023-04-26T17:35:04.626Z,44.67
2023-04-26T17:37:34.455Z,44.91
2023-04-26T17:40:06.255Z,45.54
2023-04-26T17:42:37.861Z,45.12
2023-04-26T17:45:10.408Z,44.29
2023-04-26T17:47:42.573Z,45.32
2023-04-26T17:50:15.874Z,45.40
2023-04-26T17:52:46.094Z,44.90
2023-04-26T17:55:16.388Z,44.62
2023-04-26T17:57:47.062Z,45.37
2023-04-26T18:00:20.786Z,45.29
2023-04-26T18:02:50.709Z,45.91
2023-04-26T18:05:24.707Z,45.44
2023-04-26T18:07:54.734Z,45.52
2023-04-26T18:10:25.021Z,45.87
2023-04-26T18:12:55.008Z,46.51
2023-04-26T18:15:25.273Z,46.75
2023-04-26T18:17:55.683Z,46.81
2023-04-26T18:20:28.462Z,45.58
2023-04-26T18:22:58.616Z,46.79
2023-04-26T18:25:28.888Z,46.62
2023-04-26T18:27:58.953Z,46.83
2023-04-26T18:30:28.949Z,46.88
2023-04-26T18:32:59.053Z,47.24
2023-04-26T18:35:31.697Z,47.17
2023-04-26T18:38:01.578Z,47.30
2023-04-26T18:40:31.623Z,47.95
2023-04-26T18:43:02.183Z,48.02
2023-04-26T18:45:32.432Z,48.21
2023-04-26T18:48:02.406Z,48.46
2023-04-26T18:50:35.027Z,49.41
2023-04-26T18:53:04.920Z,49.77
2023-04-26T18:55:34.856Z,49.70
2023-04-26T18:58:04.815Z,50.39
2023-04-26T19:00:35.420Z,51.04
2023-04-26T19:03:05.569Z,50.96
2023-04-26T19:05:38.245Z,51.27
2023-04-26T19:08:09.220Z,51.68
2023-04-26T19:10:39.227Z,52.21
2023-04-26T19:13:09.190Z,52.40
2023-04-26T19:15:39.304Z,52.88
2023-04-26T19:18:09.361Z,52.73
2023-04-26T19:20:42.232Z,52.85
2023-04-26T19:23:12.737Z,52.73
2023-04-26T19:25:42.639Z,53.19
2023-04-26T19:28:12.664Z,53.20
2023-04-26T19:30:42.766Z,53.56
2023-04-26T19:33:13.761Z,53.75
2023-04-26T19:35:46.533Z,53.92
2023-04-26T19:38:16.702Z,53.89
2023-04-26T19:40:46.776Z,53.68
2023-04-26T19:43:17.510Z,54.28
2023-04-26T19:45:47.924Z,54.60
2023-04-26T19:48:17.949Z,54.92
2023-04-26T19:50:50.642Z,55.22
2023-04-26T19:53:20.891Z,55.03
2023-04-26T19:55:51.035Z,55.21
2023-04-26T19:58:21.012Z,55.54
2023-04-26T20:00:51.329Z,55.55
2023-04-26T20:03:21.509Z,55.85
2023-04-26T20:05:54.121Z,55.93
2023-04-26T20:08:24.078Z,55.98
2023-04-26T20:10:54.198Z,56.36
2023-04-26T20:13:24.339Z,56.21
2023-04-26T20:15:54.257Z,56.86
2023-04-26T20:18:24.166Z,57.01
2023-04-26T20:20:56.680Z,56.96
2023-04-26T20:23:26.538Z,57.14
2023-04-26T20:25:56.423Z,57.69
2023-04-26T20:28:26.913Z,57.65
2023-04-26T20:30:57.063Z,57.93
2023-04-26T20:33:27.064Z,58.11
2023-04-26T20:35:59.632Z,58.22
2023-04-26T20:38:29.620Z,58.32
2023-04-26T20:40:59.991Z,58.52
2023-04-26T20:43:29.838Z,58.83
2023-04-26T20:45:59.718Z,59.28
2023-04-26T20:48:29.863Z,59.30
2023-04-26T20:51:03.113Z,59.28
2023-04-26T20:53:33.113Z,59.44
2023-04-26T20:56:03.725Z,59.44
2023-04-26T20:58:33.901Z,59.41
2023-04-26T21:01:05.775Z,59.65
2023-04-26T21:03:39.382Z,59.82
2023-04-26T21:06:12.382Z,60.71
2023-04-26T21:08:43.254Z,60.50
2023-04-26T21:11:13.221Z,60.29
2023-04-26T21:13:43.107Z,60.42
2023-04-26T21:16:13.007Z,60.24
2023-04-26T21:18:43.030Z,60.37
2023-04-26T21:21:15.520Z,60.41
2023-04-26T21:23:45.763Z,60.38
2023-04-26T21:26:15.897Z,60.53
2023-04-26T21:28:47.655Z,60.23
2023-04-26T21:31:17.690Z,60.58
2023-04-26T21:33:47.657Z,60.84
2023-04-26T21:36:20.174Z,60.75
2023-04-26T21:38:50.216Z,60.33
2023-04-26T21:41:20.386Z,60.32
2023-04-26T21:43:50.596Z,59.87
2023-04-26T21:46:20.667Z,60.20
2023-04-26T21:48:50.992Z,60.67
2023-04-26T21:51:23.433Z,61.00
2023-04-26T21:53:53.570Z,61.30
2023-04-26T21:56:24.297Z,61.09
2023-04-26T21:58:54.726Z,61.60
2023-04-26T22:01:25.313Z,61.65
2023-04-26T22:03:57.924Z,61.54
2023-04-26T22:06:30.556Z,61.65
2023-04-26T22:09:00.498Z,61.62
2023-04-26T22:11:30.404Z,61.79
2023-04-26T22:14:01.795Z,61.89
2023-04-26T22:16:32.244Z,61.67
2023-04-26T22:19:04.559Z,61.89
2023-04-26T22:21:37.436Z,61.75
2023-04-26T22:24:10.426Z,62.04
2023-04-26T22:26:40.238Z,61.90
2023-04-26T22:29:10.510Z,62.19
2023-04-26T22:31:40.559Z,62.39
2023-04-26T22:34:10.750Z,62.44
2023-04-26T22:36:43.348Z,62.56
2023-04-26T22:39:13.595Z,62.63
2023-04-26T22:41:43.621Z,62.67
2023-04-26T22:44:13.463Z,62.70
2023-04-26T22:46:43.389Z,63.22
2023-04-26T22:49:13.559Z,63.11
2023-04-26T22:51:57.257Z,63.51
2023-04-26T22:54:36.232Z,63.52
2023-04-26T22:57:07.595Z,63.70
2023-04-26T22:59:37.518Z,63.49
2023-04-26T23:02:07.738Z,63.71
2023-04-26T23:04:37.590Z,63.62
2023-04-26T23:07:13.383Z,64.31
2023-04-26T23:09:43.327Z,64.05
2023-04-26T23:12:13.716Z,64.28
2023-04-26T23:14:43.679Z,64.52
2023-04-26T23:17:14.540Z,64.58
2023-04-26T23:19:44.631Z,64.53
2023-04-26T23:22:17.934Z,64.85
2023-04-26T23:24:47.837Z,64.62
2023-04-26T23:27:19.301Z,64.90
2023-04-26T23:29:49.642Z,65.30
2023-04-26T23:32:19.588Z,65.31
2023-04-26T23:34:49.514Z,65.30
2023-04-26T23:37:22.373Z,65.75
2023-04-26T23:39:52.341Z,65.74
2023-04-26T23:42:22.565Z,66.00
2023-04-26T23:44:52.567Z,65.89
2023-04-26T23:47:22.464Z,65.89
2023-04-26T23:49:52.521Z,66.05
2023-04-26T23:52:25.078Z,66.26
2023-04-26T23:54:55.074Z,66.08
2023-04-26T23:57:25.421Z,65.98
2023-04-26T23:59:55.860Z,66.14
